Goleniow, Poland
Current Conditions -  °F | °C
As of 7:00 AM on Thursday 23 Oct 2014 (Local Time) from EPSC Reporting Station
Broken Clouds Broken Clouds  
Wind Chill: 46°   Ceiling: 1100
Heat Index: 48°   Visibility: 6mi
Dew Point: 45°   Wind: 5mph
Humidity: 87%   Direction: 30°NNE
Pressure: 30.03"   Gusts: NA
Location:  53.57°N, 14.82°E
Report Text: EPSC 230500Z 03004KT 9999 BKN011 09/07 Q1017
Loading
Personal Weather Stations






























Interactive Weather Map
Tropical Storm Tracking
New forecast layout! Learn more

10-Day Weather Forecast

Advertisements
Track Severe Weather on mobile